Data for 07/14/2017

Time Sea-Level Adjusted Pressure Absolute Pressure Temperature Relative Humidity Dew Point   
(mb) (inHg) (mb) (inHg) (C) (F) (%) (C) (F)
00:05 1021 30.15 850 25.1 22.6 72.7 29 3.9 38.9
00:10 1021 30.15 850 25.1 22.5 72.5 28 3.5 38.4
00:15 1021 30.15 851 25.13 22.4 72.3 32 5 41.1
00:20 1022 30.18 851 25.13 21.4 70.5 34 5 41
00:25 1022 30.18 851 25.13 21.2 70.1 34 4.7 40.5
00:30 1022 30.18 851 25.13 21.3 70.4 34 5.1 41.2
00:35 1022 30.18 851 25.13 21.4 70.5 36 5.7 42.2
00:40 1022 30.18 851 25.13 21.3 70.4 36 5.8 42.4
00:45 1022 30.18 851 25.13 21.3 70.3 36 5.9 42.6
00:50 1022 30.18 851 25.13 21.3 70.3 36 5.9 42.7
00:55 1022 30.18 851 25.13 21.1 70 38 6.2 43.2
01:00 1022 30.18 851 25.13 20.9 69.7 38 6.4 43.5
01:05 1022 30.18 851 25.13 20.8 69.4 39 6.4 43.4
01:10 1022 30.18 851 25.13 20.6 69.1 39 6.2 43.2
01:15 1022 30.18 851 25.13 20.5 68.9 38 5.9 42.7
01:20 1022 30.18 851 25.13 20.4 68.8 38 6 42.7
01:25 1022 30.18 852 25.16 20.4 68.6 39 6.2 43.1
01:30 1022 30.18 852 25.16 20.2 68.4 39 6 42.9
01:35 1022 30.18 852 25.16 20.4 68.8 38 5.6 42.2
01:40 1022 30.18 852 25.16 20.6 69.1 38 5.9 42.7
01:45 1022 30.18 852 25.16 20.5 69 39 6.1 43
01:50 1022 30.18 852 25.16 20.6 69.1 38 6 42.9
01:55 1022 30.18 852 25.16 20.5 68.8 37 5.3 41.5
02:00 1022 30.18 852 25.16 20.6 69 39 6.3 43.4
02:05 1023 30.21 852 25.16 20.5 68.9 39 6.1 43
02:10 1023 30.21 852 25.16 20.8 69.5 34 4.7 40.5
02:15 1023 30.21 852 25.16 21.3 70.3 35 5.6 42
02:20 1023 30.21 852 25.16 21 69.8 38 6.2 43.2
02:25 1023 30.21 852 25.16 20.7 69.3 36 5.4 41.7
02:30 1023 30.21 852 25.16 20.9 69.6 36 5.4 41.7
02:35 1023 30.21 852 25.16 21.1 69.9 35 5.2 41.3
02:40 1023 30.21 852 25.16 21.2 70.2 35 5.5 41.8
02:45 1023 30.21 852 25.16 21.2 70.2 35 5.4 41.7
02:50 1023 30.21 852 25.16 21 69.8 37 5.8 42.4
02:55 1023 30.21 852 25.16 20.6 69 38 6.1 43
03:00 1023 30.21 852 25.16 20.3 68.5 38 5.8 42.4
03:05 1023 30.21 852 25.16 20.2 68.3 39 6 42.8
03:10 1023 30.21 852 25.16 20.4 68.8 37 5.2 41.4
03:15 1023 30.21 852 25.16 20.5 68.9 37 5.5 42
03:20 1023 30.21 852 25.16 20.6 69.1 36 5.4 41.7
03:25 1023 30.21 852 25.16 20.6 69.1 36 5.2 41.3
03:30 1023 30.21 852 25.16 20.7 69.2 36 5.2 41.4
03:35 1023 30.21 852 25.16 20.6 69.1 37 5.6 42
03:40 1023 30.21 852 25.16 20.3 68.6 39 6.2 43.1
03:45 1023 30.21 852 25.16 19.8 67.6 42 6.6 43.9
03:50 1023 30.21 853 25.19 19.3 66.7 43 6.6 43.8
03:55 1023 30.21 853 25.19 19.1 66.4 44 6.9 44.4
04:00 1023 30.21 853 25.19 18.9 66.1 46 7.1 44.7
04:05 1023 30.21 853 25.19 18.9 66 45 6.8 44.2
04:10 1024 30.24 853 25.19 19 66.1 46 7.1 44.8
04:15 1024 30.24 853 25.19 18.7 65.7 46 7.1 44.7
04:20 1024 30.24 853 25.19 18.7 65.7 46 7 44.6
04:25 1024 30.24 853 25.19 18.4 65.1 47 7.1 44.8
04:30 1024 30.24 853 25.19 18.1 64.6 48 6.9 44.5
04:35 1024 30.24 853 25.19 18.1 64.6 47 6.7 44
04:40 1024 30.24 853 25.19 17.9 64.3 48 7 44.6
04:45 1024 30.24 853 25.19 17.5 63.6 48 6.6 43.8
04:50 1024 30.24 853 25.19 17.5 63.5 49 6.8 44.2
04:55 1024 30.24 853 25.19 17.3 63.1 50 6.9 44.3
05:00 1024 30.24 853 25.19 17 62.6 52 7.2 44.9
05:05 1024 30.24 853 25.19 16.5 61.6 51 6.5 43.7
05:10 1024 30.24 853 25.19 16.8 62.2 52 6.9 44.5
05:15 1024 30.24 853 25.19 16.8 62.2 50 6.4 43.5
05:20 1024 30.24 853 25.19 17 62.5 48 6 42.7
05:25 1024 30.24 853 25.19 17.8 64 45 5.7 42.2
05:30 1024 30.24 853 25.19 17.9 64.3 48 6.8 44.2
05:35 1024 30.24 854 25.22 17.3 63.2 51 7.2 45
05:40 1024 30.24 854 25.22 16.9 62.4 50 6.6 43.9
05:45 1025 30.27 854 25.22 16.9 62.5 52 7 44.6
05:50 1025 30.27 854 25.22 16.9 62.4 52 7 44.6
05:55 1025 30.27 854 25.22 16.9 62.4 51 6.8 44.2
06:00 1025 30.27 854 25.22 17.1 62.8 50 6.8 44.3
06:05 1025 30.27 854 25.22 17.4 63.3 49 6.8 44.2
06:10 1025 30.27 854 25.22 17.8 64 50 7.3 45.1
06:15 1025 30.27 854 25.22 18.2 64.8 48 7.3 45.1
06:20 1025 30.27 854 25.22 18.2 64.8 48 7.1 44.8
06:25 1025 30.27 854 25.22 18.6 65.4 48 7.3 45.2
06:30 1025 30.27 854 25.22 18.9 66.1 46 7.3 45.1
06:35 1025 30.27 854 25.22 19.3 66.8 47 7.7 45.9
06:40 1025 30.27 854 25.22 19.6 67.3 46 7.8 46.1
06:45 1025 30.27 854 25.22 19.8 67.6 47 8.2 46.8
06:50 1025 30.27 854 25.22 19.8 67.7 47 8.3 46.9
06:55 1025 30.27 854 25.22 19.7 67.5 47 8.1 46.6
07:00 1025 30.27 854 25.22 19.9 67.7 44 7.3 45.2
07:05 1025 30.27 854 25.22 20.4 68.7 42 7.2 44.9
07:10 1025 30.27 855 25.25 21.1 70.1 42 7.8 46
07:15 1025 30.27 855 25.25 21.2 70.1 42 7.8 46
07:20 1025 30.27 855 25.25 21.4 70.5 41 7.9 46.2
07:25 1025 30.27 855 25.25 21.7 71.1 40 7.7 45.8
07:30 1025 30.27 855 25.25 22.6 72.7 38 7.7 45.8
07:35 1025 30.27 855 25.25 23.5 74.3 37 8 46.4
07:40 1025 30.27 855 25.25 23.7 74.7 37 8.5 47.3
07:45 1026 30.3 855 25.25 23.9 74.9 38 8.8 47.9
07:50 1026 30.3 855 25.25 24 75.2 37 8.8 47.8
07:55 1026 30.3 855 25.25 23.8 74.8 38 8.8 47.8
08:00 1026 30.3 855 25.25 24.4 75.8 36 8.3 47
08:05 1026 30.3 855 25.25 24.5 76.1 36 8.6 47.6
08:10 1026 30.3 855 25.25 24.8 76.6 34 8.2 46.8
08:15 1026 30.3 855 25.25 24.5 76 34 7.8 46.1
08:20 1026 30.3 855 25.25 24.7 76.4 33 7.4 45.4
08:25 1026 30.3 855 25.25 25.1 77.2 32 7.7 45.9
08:30 1026 30.3 855 25.25 25.8 78.4 32 8 46.4
08:35 1026 30.3 855 25.25 26 78.7 31 7.6 45.7
08:40 1026 30.3 855 25.25 26.3 79.4 30 7.5 45.6
08:45 1026 30.3 855 25.25 27.1 80.8 28 7.3 45.1
08:50 1025 30.27 855 25.25 27.2 80.9 29 7.9 46.2
08:55 1025 30.27 855 25.25 27 80.5 28 7.2 45
09:00 1025 30.27 855 25.25 27.4 81.2 28 7.6 45.7
09:05 1025 30.27 855 25.25 27.6 81.7 26 6.9 44.3
09:10 1025 30.27 855 25.25 28 82.4 25 6.4 43.6
09:15 1025 30.27 855 25.25 28.2 82.7 26 7.2 44.9
09:20 1025 30.27 855 25.25 28.1 82.6 27 7.4 45.4
09:25 1025 30.27 855 25.25 28.3 83 26 7.5 45.4
09:30 1025 30.27 855 25.25 28 82.4 26 7 44.6
09:35 1025 30.27 855 25.25 28.1 82.5 26 6.9 44.3
09:40 1025 30.27 855 25.25 27.6 81.7 27 7.3 45.2
09:45 1025 30.27 855 25.25 28.1 82.5 25 6.3 43.4
09:50 1025 30.27 855 25.25 28.6 83.5 24 6.2 43.1
09:55 1025 30.27 855 25.25 29 84.2 22 5.3 41.5
10:00 1025 30.27 855 25.25 29.6 85.3 20 4.5 40.1
10:05 1025 30.27 855 25.25 29.4 84.9 21 5.3 41.6
10:10 1025 30.27 855 25.25 29.6 85.3 21 5.2 41.4
10:15 1025 30.27 855 25.25 29.6 85.3 21 5.4 41.7
10:20 1025 30.27 855 25.25 29.6 85.2 21 5.1 41.1
10:25 1025 30.27 855 25.25 29.4 84.8 22 6 42.7
10:30 1025 30.27 855 25.25 29 84.3 21 4.7 40.5
10:35 1025 30.27 855 25.25 29.7 85.4 20 5 41.1
10:40 1025 30.27 855 25.25 29.5 85.1 21 5.4 41.7
10:45 1025 30.27 855 25.25 30.2 86.3 24 7.5 45.5
10:50 1025 30.27 855 25.25 30.1 86.2 22 6.1 43.1
10:55 1025 30.27 855 25.25 29.2 84.5 21 4.9 40.8
11:00 1025 30.27 855 25.25 29.9 85.7 20 4.5 40.1
11:05 1025 30.27 855 25.25 29.7 85.4 20 4.5 40
11:10 1025 30.27 855 25.25 30.4 86.8 19 4.4 40
11:15 1025 30.27 855 25.25 30.8 87.4 18 3.7 38.7
11:20 1025 30.27 855 25.25 31.2 88.1 17 3.9 38.9
11:25 1025 30.27 855 25.25 31 87.8 17 3.8 38.9
11:30 1025 30.27 855 25.25 31.3 88.3 16 2.6 36.7
11:35 1025 30.27 854 25.22 31.6 88.9 18 4.5 40
11:40 1025 30.27 854 25.22 31.3 88.4 16 2.8 37.1
11:45 1025 30.27 854 25.22 31.1 87.9 16 2.6 36.6
11:50 1025 30.27 854 25.22 31.7 89 16 3.6 38.4
11:55 1025 30.27 854 25.22 31.6 88.8 15 2.6 36.7
12:00 1025 30.27 854 25.22 31.5 88.7 17 4 39.2
12:05 1025 30.27 854 25.22 31.4 88.5 17 3.6 38.6
12:10 1025 30.27 854 25.22 30.6 87 18 4.1 39.4
12:15 1025 30.27 854 25.22 30.6 87.1 18 4 39.3
12:20 1025 30.27 854 25.22 30.7 87.2 18 4.3 39.8
12:25 1025 30.27 854 25.22 30.9 87.6 19 5.1 41.1
12:30 1025 30.27 854 25.22 30.3 86.6 21 5.6 42.1
12:35 1025 30.27 854 25.22 29.8 85.6 20 5 40.9
12:40 1025 30.27 854 25.22 30.5 86.8 20 5.1 41.1
12:45 1025 30.27 854 25.22 30.6 87 20 5.4 41.7
12:50 1025 30.27 854 25.22 30.8 87.5 18 4.4 40
12:55 1025 30.27 854 25.22 30.9 87.6 22 6.8 44.3
13:00 1025 30.27 854 25.22 30.8 87.5 19 5 41.1
13:05 1025 30.27 854 25.22 31.8 89.3 18 5 41
13:10 1025 30.27 854 25.22 32 89.5 18 4.8 40.6
13:15 1025 30.27 854 25.22 31 87.8 20 5.6 42
13:20 1025 30.27 854 25.22 30.7 87.3 18 4 39.2
13:25 1025 30.27 854 25.22 31.4 88.4 18 4.9 40.9
13:30 1025 30.27 854 25.22 32.1 89.8 16 3.1 37.6
13:35 1025 30.27 854 25.22 33.2 91.8 15 3.6 38.5
13:40 1025 30.27 854 25.22 33.2 91.7 16 4.1 39.5
13:45 1025 30.27 854 25.22 32.7 90.8 16 3.7 38.7
13:50 1025 30.27 854 25.22 32.3 90.1 15 3.1 37.6
13:55 1025 30.27 854 25.22 32.2 90 15 2.5 36.5
14:00 1025 30.27 854 25.22 32 89.5 16 3.8 38.9
14:05 1025 30.27 854 25.22 32 89.7 15 2.6 36.8
14:10 1025 30.27 854 25.22 32.5 90.5 16 3.5 38.3
14:15 1025 30.27 854 25.22 32.7 90.8 15 3.3 37.9
14:20 1024 30.24 854 25.22 32.4 90.3 15 2.8 37
14:25 1024 30.24 854 25.22 32.7 90.9 18 5.5 41.9
14:30 1024 30.24 854 25.22 32.7 90.8 16 4.4 40
14:35 1024 30.24 854 25.22 31.9 89.4 15 2.9 37.2
14:40 1024 30.24 853 25.19 32.3 90.2 14 1.5 34.8
14:45 1024 30.24 853 25.19 33.4 92.1 13 2.1 35.7
14:50 1024 30.24 853 25.19 34 93.2 13 2 35.5
14:55 1024 30.24 853 25.19 35.1 95.1 13 2.7 36.8
15:00 1024 30.24 853 25.19 35.1 95.2 13 2.5 36.5
15:05 1024 30.24 853 25.19 34.1 93.3 13 2.1 35.7
15:10 1024 30.24 853 25.19 34.6 94.3 13 2.2 36
15:15 1024 30.24 853 25.19 35.3 95.5 13 2.9 37.2
15:20 1024 30.24 853 25.19 35.2 95.3 12 2 35.6
15:25 1024 30.24 853 25.19 34.1 93.3 14 2.9 37.1
15:30 1024 30.24 853 25.19 34.2 93.5 13 2.1 35.8
15:35 1024 30.24 853 25.19 33.5 92.4 13 2.1 35.8
15:40 1024 30.24 853 25.19 33.3 91.9 14 2.3 36.1
15:45 1024 30.24 853 25.19 33.1 91.5 14 2.4 36.4
15:50 1024 30.24 853 25.19 33.5 92.2 13 2 35.6
15:55 1024 30.24 853 25.19 34.2 93.6 13 2.4 36.2
16:00 1024 30.24 853 25.19 34.6 94.3 13 2.9 37.2
16:05 1024 30.24 853 25.19 34.2 93.5 13 2.7 36.9
16:10 1024 30.24 853 25.19 33.9 93.1 13 2.4 36.4
16:15 1024 30.24 853 25.19 34.3 93.8 15 4.4 39.8
16:20 1024 30.24 853 25.19 33.4 92.2 14 2.8 37.1
16:25 1024 30.24 853 25.19 33.6 92.5 13 2 35.6
16:30 1024 30.24 853 25.19 33.5 92.2 14 2.4 36.2
16:35 1024 30.24 853 25.19 33.7 92.7 14 2.5 36.5
16:40 1024 30.24 853 25.19 34.1 93.3 14 3.2 37.8
16:45 1024 30.24 853 25.19 33.5 92.3 15 3.6 38.5
16:50 1024 30.24 853 25.19 32.8 91.1 15 3.1 37.6
16:55 1024 30.24 853 25.19 33.4 92.1 15 4.1 39.3
17:00 1024 30.24 853 25.19 33.3 91.9 15 4 39.2
17:05 1024 30.24 853 25.19 32.6 90.6 16 3.5 38.3
17:10 1024 30.24 853 25.19 31.9 89.4 19 5.4 41.8
17:15 1023 30.21 853 25.19 31.2 88.1 19 5.4 41.8
17:20 1023 30.21 853 25.19 31.2 88.2 19 5.3 41.6
17:25 1023 30.21 853 25.19 31.4 88.5 19 5.2 41.4
17:30 1023 30.21 852 25.16 31.5 88.7 19 5.3 41.5
17:35 1023 30.21 852 25.16 31.9 89.4 19 5.8 42.4
17:40 1023 30.21 852 25.16 31.9 89.3 18 4.7 40.5
17:45 1023 30.21 852 25.16 31.6 88.8 17 4.1 39.4
17:50 1023 30.21 852 25.16 31.3 88.3 19 4.9 40.9
17:55 1023 30.21 852 25.16 31.3 88.4 18 4.3 39.7
18:00 1023 30.21 852 25.16 31.2 88.2 19 4.9 40.8
18:05 1023 30.21 852 25.16 30.8 87.4 19 4.9 40.9
18:10 1023 30.21 852 25.16 30.5 86.8 19 4.5 40.2
18:15 1023 30.21 852 25.16 30.3 86.5 19 4.7 40.5
18:20 1023 30.21 853 25.19 30.1 86.1 21 5.5 41.9
18:25 1023 30.21 853 25.19 29.8 85.7 21 5.3 41.5
18:30 1023 30.21 853 25.19 29.7 85.4 21 5.3 41.5
18:35 1023 30.21 853 25.19 29.6 85.2 21 5.3 41.6
18:40 1024 30.24 853 25.19 29.4 84.9 21 4.9 40.7
18:45 1024 30.24 853 25.19 29.3 84.7 21 4.9 40.9
18:50 1024 30.24 853 25.19 29.1 84.4 21 5.2 41.4
18:55 1024 30.24 853 25.19 29 84.1 22 5.3 41.6
19:00 1024 30.24 853 25.19 28.9 83.9 21 5 41
19:05 1024 30.24 853 25.19 28.9 83.9 22 5.2 41.3
19:10 1024 30.24 853 25.19 28.7 83.7 22 5.3 41.6
19:15 1024 30.24 853 25.19 28.5 83.3 23 5.5 41.8
19:20 1024 30.24 853 25.19 28.4 83.1 23 5.5 41.9
19:25 1024 30.24 853 25.19 28.1 82.7 24 5.8 42.5
19:30 1024 30.24 853 25.19 27.9 82.1 24 5.8 42.4
19:35 1024 30.24 853 25.19 27.7 81.8 24 5.7 42.2
19:40 1024 30.24 853 25.19 27.6 81.6 25 6 42.7
19:45 1024 30.24 853 25.19 27.4 81.3 25 5.7 42.3
19:50 1024 30.24 853 25.19 27.3 81.2 25 5.6 42.1
19:55 1024 30.24 853 25.19 27.3 81.1 24 5.5 41.8
20:00 1024 30.24 853 25.19 27.2 80.9 25 5.5 41.8
20:05 1024 30.24 853 25.19 27.1 80.8 24 5.2 41.4
20:10 1024 30.24 853 25.19 27 80.6 24 5.2 41.3
20:15 1024 30.24 853 25.19 26.9 80.4 24 4.9 40.8
20:20 1024 30.24 853 25.19 26.9 80.4 24 4.8 40.6
20:25 1024 30.24 853 25.19 26.9 80.4 24 4.7 40.4
20:30 1024 30.24 853 25.19 26.9 80.4 24 4.8 40.7
20:35 1024 30.24 854 25.22 26.7 80 24 4.9 40.8
20:40 1024 30.24 854 25.22 26.6 79.9 24 4.8 40.7
20:45 1024 30.24 854 25.22 26.5 79.7 24 4.8 40.7
20:50 1024 30.24 854 25.22 26.4 79.5 25 4.9 40.9
20:55 1025 30.27 854 25.22 26.3 79.3 25 4.9 40.8
21:00 1025 30.27 854 25.22 26.1 79.1 25 4.9 40.8
21:05 1025 30.27 854 25.22 26.2 79.1 25 4.8 40.6
21:10 1025 30.27 854 25.22 26.2 79.2 25 4.8 40.6
21:15 1025 30.27 854 25.22 26.2 79.2 25 4.7 40.4
21:20 1025 30.27 854 25.22 26.2 79.2 24 4.6 40.3
21:25 1025 30.27 854 25.22 26.2 79.1 25 4.7 40.4
21:30 1025 30.27 854 25.22 26.2 79.1 25 4.6 40.3
21:35 1025 30.27 854 25.22 26.1 78.9 25 4.6 40.3
21:40 1025 30.27 854 25.22 26 78.8 24 4.3 39.8
21:45 1025 30.27 854 25.22 26 78.8 25 4.6 40.3
21:50 1025 30.27 854 25.22 25.9 78.6 25 4.4 39.9
21:55 1025 30.27 854 25.22 26 78.7 24 4.2 39.6
22:00 1025 30.27 854 25.22 26.1 78.9 23 3.9 38.9
22:05 1025 30.27 854 25.22 26.3 79.3 24 4.1 39.5
22:10 1025 30.27 854 25.22 26.1 79 23 3.8 38.9
22:15 1025 30.27 854 25.22 26.2 79.1 23 3.7 38.6
22:20 1025 30.27 854 25.22 26.1 79 24 4 39.2
22:25 1025 30.27 854 25.22 25.9 78.6 24 3.9 39
22:30 1025 30.27 854 25.22 25.7 78.3 24 4 39.2
22:35 1025 30.27 854 25.22 25.5 77.8 25 4 39.2
22:40 1025 30.27 854 25.22 25.3 77.5 25 4.2 39.6
22:45 1025 30.27 854 25.22 25.1 77.2 25 3.9 39.1
22:50 1025 30.27 854 25.22 25.1 77.2 25 3.7 38.7
22:55 1025 30.27 854 25.22 25.2 77.4 24 3.7 38.6
23:00 1025 30.27 854 25.22 25.1 77.2 25 3.8 38.9
23:05 1025 30.27 854 25.22 25 77.1 25 3.9 39
23:10 1025 30.27 854 25.22 24.9 76.8 25 3.8 38.9
23:15 1025 30.27 854 25.22 24.8 76.6 27 4.9 40.9
23:20 1025 30.27 854 25.22 24.5 76.1 26 4.2 39.5
23:25 1025 30.27 854 25.22 24.5 76.2 26 3.9 39
23:30 1025 30.27 855 25.25 24.8 76.6 25 4 39.1
23:35 1025 30.27 855 25.25 25 76.9 25 3.9 38.9
23:40 1025 30.27 855 25.25 25.2 77.3 25 4 39.3
23:45 1025 30.27 855 25.25 25.1 77.1 25 4.1 39.4
23:50 1025 30.27 855 25.25 24.9 76.9 26 4.2 39.6
23:55 1026 30.3 855 25.25 24.8 76.6 26 4.3 39.7
24:00 1026 30.3 855 25.25 24.8 76.6 26 4.4 39.9